Observations for Trim Market St
| Time | AQI | Temp °C | Hum % | Pres Pa | CO μg/m³ | H₂S μg/m³ | NO μg/m³ | NO₂ μg/m³ | O₃ μg/m³ | SO₂ μg/m³ | PM1 μg/m³ | PM2.5 μg/m³ | PM10 μg/m³ |
|---|---|---|---|---|---|---|---|---|---|---|---|---|---|
| Monday 17 August 2026 | |||||||||||||
| 16:25 | 2 | 25.7 | 51 | 60,540 | 0 | 0 | 1.06 | 12.41 | 75.43 | 0 | 0 | 2.41 | 3.09 |
| 16:24 | 2 | 25.7 | 51 | 60,708 | 0 | 0 | 1.08 | 11.9 | 78.9 | 0 | 0 | 2.41 | 3.09 |
| 16:23 | 2 | 25.7 | 51 | 61,040 | 0 | 0 | 1.13 | 12.01 | 72.68 | 0 | 0 | 2.41 | 3.09 |
| 16:22 | 2 | 25.7 | 51 | 61,208 | 0 | 0 | 1.29 | 11.98 | 68.22 | 0 | 0 | 2.41 | 3.09 |
| 16:21 | 2 | 25.8 | 51 | 61,326 | 0 | 0 | 1.23 | 11.61 | 72.13 | 0 | 0 | 2.42 | 2.66 |
| 16:20 | 2 | 25.8 | 51 | 61,350 | 0 | 0 | 1.12 | 11.88 | 75.41 | 0 | 0 | 2.42 | 2.66 |
| 16:19 | 2 | 25.8 | 51 | 61,394 | 0.1 | 0 | 1.2 | 12.44 | 59.35 | 0 | 0 | 1.91 | 2.1 |
| 16:18 | 2 | 25.9 | 51 | 61,439 | 0 | 0 | 1.06 | 11.5 | 71.15 | 0 | 0 | 2.42 | 2.66 |
| 16:17 | 2 | 25.8 | 51 | 61,417 | 0 | 0 | 1.01 | 11.61 | 68.26 | 0 | 1.43 | 2.93 | 3.08 |
| 16:15 | 2 | 25.9 | 51 | 61,429 | 0 | 0 | 0.98 | 12.25 | 72.7 | 0 | 0 | 2.42 | 2.67 |
| 16:13 | 2 | 25.9 | 51 | 61,650 | 0 | 0 | 1.02 | 11.76 | 64.43 | 0 | 0 | 2.43 | 3.08 |
| 16:11 | 2 | 25.9 | 50 | 61,771 | 0 | 0 | 1.06 | 12.62 | 73.64 | 0 | 0 | 2.43 | 2.67 |
| 16:08 | 2 | 26 | 50 | 62,306 | 0 | 0 | 1.12 | 12.33 | 64.46 | 0 | 0.71 | 3.47 | 3.81 |
| 16:00 | 2 | 26.1 | 50 | 62,444 | 0 | 0 | 1.29 | 11.18 | 69.6 | 0 | 0 | 1.93 | 2.13 |
| 15:59 | 2 | 26.1 | 50 | 62,399 | 0 | 0 | 1.3 | 11.48 | 68.51 | 0 | 0.71 | 2.96 | 3.06 |
| 15:58 | 2 | 26.1 | 50 | 62,379 | 0 | 0 | 1.37 | 10.95 | 61.46 | 0 | 0 | 1.93 | 2.32 |
| 15:57 | 2 | 26.1 | 50 | 62,245 | 0 | 0 | 1.46 | 11.23 | 58.54 | 0 | 0 | 1.92 | 2.11 |
| 15:56 | 2 | 26 | 50 | 62,174 | 0.01 | 0 | 1.47 | 12.51 | 60.03 | 0 | 0 | 2.43 | 2.67 |
| 15:55 | 2 | 26 | 50 | 62,049 | 0 | 0 | 1.42 | 12.47 | 58.87 | 0 | 0.71 | 2.95 | 3.07 |
| 15:54 | 2 | 26 | 50 | 62,067 | 0 | 0 | 1.44 | 12.55 | 56.58 | 0 | 0.71 | 2.43 | 2.67 |